createdAt,value
2022-08-08T00:00:50.146Z,65.43
2022-08-08T00:00:56.388Z,66.97
2022-08-08T00:02:03.492Z,67.07
2022-08-08T00:02:30.932Z,66.10
2022-08-08T00:03:31.613Z,66.26
2022-08-08T00:04:25.410Z,66.26
2022-08-08T00:06:00.818Z,67.03
2022-08-08T00:06:28.557Z,66.84
2022-08-08T00:07:23.304Z,67.03
2022-08-08T00:08:24.468Z,66.74
2022-08-08T00:09:23.294Z,67.03
2022-08-08T00:10:28.670Z,66.84
2022-08-08T00:11:23.290Z,66.16
2022-08-08T00:12:24.646Z,66.74
2022-08-08T00:14:15.733Z,66.26
2022-08-08T00:14:47.736Z,67.22
2022-08-08T00:15:24.334Z,67.22
2022-08-08T00:16:24.310Z,66.93
2022-08-08T00:17:23.866Z,67.13
2022-08-08T00:18:23.251Z,67.51
2022-08-08T00:19:23.257Z,67.32
2022-08-08T00:20:23.256Z,67.03
2022-08-08T00:21:23.273Z,67.41
2022-08-08T00:22:23.296Z,68.44
2022-08-08T00:23:23.241Z,68.34
2022-08-08T00:24:24.031Z,68.24
2022-08-08T00:25:23.235Z,68.53
2022-08-08T00:26:29.485Z,67.57
2022-08-08T00:27:23.859Z,68.44
2022-08-08T00:28:35.285Z,68.53
2022-08-08T00:29:44.189Z,68.63
2022-08-08T00:30:23.860Z,68.82
2022-08-08T00:32:28.204Z,69.20
2022-08-08T00:32:34.908Z,69.59
2022-08-08T00:33:24.177Z,69.40
2022-08-08T00:34:23.188Z,69.01
2022-08-08T00:35:23.189Z,68.73
2022-08-08T00:36:25.793Z,68.91
2022-08-08T00:37:47.821Z,69.11
2022-08-08T00:38:31.871Z,69.68
2022-08-08T00:41:06.074Z,68.82
2022-08-08T00:41:11.466Z,69.40
2022-08-08T00:41:54.992Z,69.40
2022-08-08T00:42:33.165Z,69.49
2022-08-08T00:43:23.679Z,69.20
2022-08-08T00:44:23.150Z,69.78
2022-08-08T00:45:27.017Z,70.03
2022-08-08T00:46:23.144Z,69.49
2022-08-08T00:47:23.859Z,68.40
2022-08-08T00:48:29.837Z,69.46
2022-08-08T00:49:23.221Z,69.93
2022-08-08T00:50:23.124Z,69.59
2022-08-08T00:51:23.943Z,69.93
2022-08-08T00:52:23.116Z,70.03
2022-08-08T00:53:23.106Z,70.32
2022-08-08T00:54:23.105Z,69.65
2022-08-08T00:55:52.391Z,69.59
2022-08-08T00:56:23.878Z,70.23
2022-08-08T00:57:29.416Z,70.51
2022-08-08T00:58:23.089Z,69.36
2022-08-08T00:59:44.786Z,69.30
2022-08-08T01:00:23.076Z,69.56
2022-08-08T01:01:37.514Z,69.46
2022-08-08T01:03:15.318Z,69.30
2022-08-08T01:04:01.315Z,68.53
2022-08-08T01:04:29.727Z,68.53
2022-08-08T01:05:41.777Z,68.34
2022-08-08T01:06:27.666Z,68.34
2022-08-08T01:07:23.047Z,69.01
2022-08-08T01:08:28.759Z,69.01
2022-08-08T01:09:35.831Z,69.59
2022-08-08T01:10:23.038Z,68.63
2022-08-08T01:11:23.029Z,69.49
2022-08-08T01:12:29.561Z,68.44
2022-08-08T01:13:38.071Z,69.59
2022-08-08T01:14:53.251Z,69.59
2022-08-08T01:15:37.303Z,69.97
2022-08-08T01:16:28.043Z,69.40
2022-08-08T01:17:34.845Z,69.68
2022-08-08T01:18:50.678Z,69.59
2022-08-08T01:19:42.248Z,69.68
2022-08-08T01:20:22.986Z,70.07
2022-08-08T01:22:03.673Z,69.65
2022-08-08T01:22:34.846Z,69.65
2022-08-08T01:24:06.437Z,69.84
2022-08-08T01:24:22.965Z,69.74
2022-08-08T01:25:26.364Z,70.51
2022-08-08T01:26:24.125Z,71.09
2022-08-08T01:27:32.807Z,72.81
2022-08-08T01:28:27.995Z,73.20
2022-08-08T01:29:24.130Z,73.10
2022-08-08T01:30:22.940Z,72.53
2022-08-08T01:32:14.659Z,72.63
2022-08-08T01:32:22.948Z,71.47
2022-08-08T01:33:24.238Z,71.28
2022-08-08T01:34:22.922Z,72.53
2022-08-08T01:35:29.783Z,72.81
2022-08-08T01:36:23.143Z,72.43
2022-08-08T01:37:56.352Z,72.33
2022-08-08T01:38:22.899Z,71.66
2022-08-08T01:39:24.021Z,72.53
2022-08-08T01:40:22.894Z,71.95
2022-08-08T01:41:22.919Z,72.72
2022-08-08T01:42:35.953Z,72.63
2022-08-08T01:43:22.879Z,72.24
2022-08-08T01:44:22.876Z,72.81
2022-08-08T01:45:23.468Z,73.00
2022-08-08T01:46:22.869Z,73.16
2022-08-08T01:48:14.005Z,72.59
2022-08-08T01:48:30.468Z,71.92
2022-08-08T01:49:37.498Z,72.68
2022-08-08T01:50:26.063Z,72.88
2022-08-08T01:51:29.792Z,73.65
2022-08-08T01:52:55.007Z,73.65
2022-08-08T01:55:16.780Z,73.35
2022-08-08T01:55:26.512Z,73.55
2022-08-08T01:56:27.757Z,73.65
2022-08-08T01:56:31.279Z,73.65
2022-08-08T01:57:22.815Z,73.26
2022-08-08T01:58:38.204Z,73.65
2022-08-08T01:59:22.828Z,74.60
2022-08-08T02:00:22.803Z,75.37
2022-08-08T02:01:22.833Z,74.69
2022-08-08T02:02:34.498Z,75.27
2022-08-08T02:03:49.247Z,75.95
2022-08-08T02:04:22.778Z,76.04
2022-08-08T02:05:23.278Z,75.85
2022-08-08T02:06:36.371Z,75.18
2022-08-08T02:07:22.765Z,75.08
2022-08-08T02:08:22.759Z,75.56
2022-08-08T02:10:01.349Z,75.27
2022-08-08T02:10:29.436Z,74.89
2022-08-08T02:11:23.569Z,75.43
2022-08-08T02:12:22.851Z,75.43
2022-08-08T02:13:54.525Z,75.18
2022-08-08T02:14:22.778Z,75.95
2022-08-08T02:15:22.744Z,75.14
2022-08-08T02:16:22.722Z,74.37
2022-08-08T02:17:22.721Z,74.60
2022-08-08T02:18:22.714Z,75.46
2022-08-08T02:19:41.713Z,74.37
2022-08-08T02:21:01.509Z,75.04
2022-08-08T02:21:22.698Z,75.33
2022-08-08T02:22:28.147Z,75.04
2022-08-08T02:23:22.845Z,75.04
2022-08-08T02:24:22.776Z,75.14
2022-08-08T02:25:22.792Z,75.71
2022-08-08T02:26:22.672Z,76.00
2022-08-08T02:27:22.657Z,75.81
2022-08-08T02:28:35.091Z,76.29
2022-08-08T02:29:22.658Z,76.86
2022-08-08T02:30:25.581Z,76.19
2022-08-08T02:31:58.303Z,76.48
2022-08-08T02:32:26.350Z,76.19
2022-08-08T02:33:22.682Z,76.57
2022-08-08T02:34:32.544Z,75.81
2022-08-08T02:35:22.630Z,75.81
2022-08-08T02:36:23.800Z,75.23
2022-08-08T02:37:52.486Z,75.90
2022-08-08T02:38:25.006Z,75.90
2022-08-08T02:39:41.963Z,76.00
2022-08-08T02:40:22.658Z,76.39
2022-08-08T02:42:04.407Z,76.67
2022-08-08T02:42:38.072Z,77.15
2022-08-08T02:44:37.153Z,76.10
2022-08-08T02:44:37.907Z,76.19
2022-08-08T02:45:22.576Z,76.48
2022-08-08T02:46:22.568Z,76.10
2022-08-08T02:47:22.568Z,77.25
2022-08-08T02:48:25.958Z,75.81
2022-08-08T02:49:27.509Z,76.39
2022-08-08T02:50:22.881Z,76.00
2022-08-08T02:51:30.462Z,77.15
2022-08-08T02:52:35.319Z,76.96
2022-08-08T02:53:22.535Z,76.57
2022-08-08T02:54:22.532Z,77.06
2022-08-08T02:55:22.526Z,76.19
2022-08-08T02:56:22.526Z,75.81
2022-08-08T02:57:23.988Z,77.06
2022-08-08T02:58:22.506Z,76.39
2022-08-08T02:59:37.374Z,77.25
2022-08-08T03:00:31.880Z,76.39
2022-08-08T03:01:22.577Z,76.10
2022-08-08T03:02:28.885Z,76.86
2022-08-08T03:03:22.484Z,76.77
2022-08-08T03:05:02.956Z,76.19
2022-08-08T03:05:22.473Z,76.10
2022-08-08T03:06:24.255Z,76.39
2022-08-08T03:07:22.881Z,77.53
2022-08-08T03:08:22.458Z,77.25
2022-08-08T03:09:22.456Z,75.81
2022-08-08T03:10:33.643Z,75.52
2022-08-08T03:11:25.767Z,75.62
2022-08-08T03:12:36.403Z,77.25
2022-08-08T03:15:53.633Z,76.96
2022-08-08T03:15:57.396Z,77.06
2022-08-08T03:15:58.111Z,76.48
2022-08-08T03:16:34.379Z,77.15
2022-08-08T03:17:25.873Z,76.96
2022-08-08T03:18:31.282Z,77.34
2022-08-08T03:19:22.404Z,77.92
2022-08-08T03:20:22.397Z,78.49
2022-08-08T03:21:26.895Z,77.06
2022-08-08T03:22:38.546Z,77.73
2022-08-08T03:23:22.382Z,78.02
2022-08-08T03:24:22.374Z,77.92
2022-08-08T03:25:22.382Z,79.07
2022-08-08T03:26:22.875Z,78.78
2022-08-08T03:27:27.224Z,78.02
2022-08-08T03:28:22.355Z,78.30
2022-08-08T03:29:51.253Z,78.49
2022-08-08T03:30:22.340Z,78.02
2022-08-08T03:31:25.431Z,77.53
2022-08-08T03:32:22.331Z,76.48
2022-08-08T03:33:55.766Z,76.86
2022-08-08T03:34:22.319Z,78.20
2022-08-08T03:35:22.338Z,78.11
2022-08-08T03:36:27.502Z,77.44
2022-08-08T03:38:53.019Z,78.49
2022-08-08T03:38:56.151Z,78.49
2022-08-08T03:39:22.360Z,78.88
2022-08-08T03:40:28.814Z,79.51
2022-08-08T03:42:04.197Z,78.55
2022-08-08T03:42:30.077Z,78.55
2022-08-08T03:43:22.279Z,78.64
2022-08-08T03:44:25.605Z,78.74
2022-08-08T03:46:06.174Z,79.99
2022-08-08T03:46:25.430Z,79.60
2022-08-08T03:47:22.266Z,79.32
2022-08-08T03:49:09.987Z,79.99
2022-08-08T03:49:56.763Z,80.18
2022-08-08T03:50:24.711Z,80.18
2022-08-08T03:51:40.670Z,80.08
2022-08-08T03:52:22.237Z,79.80
2022-08-08T03:53:24.011Z,80.08
2022-08-08T03:54:41.684Z,80.47
2022-08-08T03:55:56.597Z,80.47
2022-08-08T03:56:31.643Z,81.71
2022-08-08T03:58:33.654Z,81.13
2022-08-08T03:58:34.931Z,81.13
2022-08-08T03:59:22.909Z,80.94
2022-08-08T04:00:22.184Z,81.04
2022-08-08T04:02:12.698Z,80.66
2022-08-08T04:02:33.306Z,80.94
2022-08-08T04:03:56.977Z,80.56
2022-08-08T04:04:23.124Z,80.76
2022-08-08T04:05:28.322Z,80.85
2022-08-08T04:06:22.152Z,80.27
2022-08-08T04:07:22.144Z,80.94
2022-08-08T04:08:33.713Z,80.94
2022-08-08T04:09:22.138Z,80.94
2022-08-08T04:10:22.176Z,81.33
2022-08-08T04:11:23.621Z,81.33
2022-08-08T04:12:27.118Z,81.43
2022-08-08T04:13:22.114Z,81.90
2022-08-08T04:14:34.172Z,81.43
2022-08-08T04:15:22.483Z,82.19
2022-08-08T04:16:22.096Z,82.09
2022-08-08T04:17:45.613Z,82.76
2022-08-08T04:18:22.085Z,82.38
2022-08-08T04:19:23.440Z,82.09
2022-08-08T04:20:28.169Z,82.96
2022-08-08T04:21:23.226Z,82.29
2022-08-08T04:22:24.071Z,83.15
2022-08-08T04:23:22.060Z,83.05
2022-08-08T04:24:29.565Z,82.19
2022-08-08T04:25:22.052Z,82.19
2022-08-08T04:26:22.054Z,82.57
2022-08-08T04:28:01.890Z,83.15
2022-08-08T04:28:40.189Z,82.09
2022-08-08T04:29:22.038Z,82.48
2022-08-08T04:30:23.080Z,82.38
2022-08-08T04:31:30.671Z,82.19
2022-08-08T04:32:40.833Z,81.90
2022-08-08T04:33:22.007Z,82.53
2022-08-08T04:34:22.007Z,82.53
2022-08-08T04:35:22.703Z,83.39
2022-08-08T04:36:21.987Z,83.39
2022-08-08T04:37:31.844Z,84.16
2022-08-08T04:38:22.334Z,83.30
2022-08-08T04:40:03.341Z,83.59
2022-08-08T04:40:23.705Z,84.55
2022-08-08T04:41:21.989Z,84.35
2022-08-08T04:42:21.951Z,83.87
2022-08-08T04:43:22.233Z,83.87
2022-08-08T04:44:21.942Z,84.35
2022-08-08T04:45:21.938Z,84.35
2022-08-08T04:46:21.933Z,84.16
2022-08-08T04:47:21.924Z,84.16
2022-08-08T04:48:22.402Z,83.68
2022-08-08T04:49:28.782Z,83.39
2022-08-08T04:50:25.179Z,83.25
2022-08-08T04:51:28.026Z,84.58
2022-08-08T04:52:25.359Z,84.39
2022-08-08T04:54:27.468Z,83.44
2022-08-08T04:54:40.196Z,84.20
2022-08-08T04:55:21.878Z,83.25
2022-08-08T04:56:21.889Z,84.58
2022-08-08T04:57:21.872Z,84.11
2022-08-08T04:58:22.570Z,85.16
2022-08-08T04:59:24.291Z,85.06
2022-08-08T05:00:21.859Z,85.16
2022-08-08T05:01:21.891Z,85.25
2022-08-08T05:02:28.651Z,84.68
2022-08-08T05:04:09.119Z,84.78
2022-08-08T05:04:21.829Z,84.68
2022-08-08T05:05:44.792Z,84.68
2022-08-08T05:06:25.509Z,84.68
2022-08-08T05:07:21.816Z,84.68
2022-08-08T05:08:21.810Z,84.97
2022-08-08T05:09:21.804Z,85.45
2022-08-08T05:10:21.796Z,84.78
2022-08-08T05:11:22.504Z,85.16
2022-08-08T05:12:21.787Z,84.58
2022-08-08T05:13:21.783Z,84.49
2022-08-08T05:14:21.777Z,85.64
2022-08-08T05:15:22.364Z,84.68
2022-08-08T05:16:52.614Z,84.88
2022-08-08T05:17:21.756Z,83.92
2022-08-08T05:18:21.753Z,83.95
2022-08-08T05:20:09.655Z,83.72
2022-08-08T05:20:21.740Z,82.81
2022-08-08T05:21:21.738Z,82.62
2022-08-08T05:22:21.726Z,82.71
2022-08-08T05:23:21.723Z,82.71
2022-08-08T05:24:22.480Z,83.38
2022-08-08T05:25:21.737Z,82.18
2022-08-08T05:26:21.709Z,81.60
2022-08-08T05:27:21.731Z,82.37
2022-08-08T05:28:48.224Z,84.09
2022-08-08T05:29:21.721Z,82.94
2022-08-08T05:30:27.934Z,82.46
2022-08-08T05:32:04.049Z,83.23
2022-08-08T05:32:24.690Z,82.46
2022-08-08T05:33:21.667Z,82.94
2022-08-08T05:34:21.665Z,83.23
2022-08-08T05:35:23.592Z,82.75
2022-08-08T05:36:25.059Z,82.65
2022-08-08T05:37:21.647Z,82.37
2022-08-08T05:38:31.936Z,81.07
2022-08-08T05:39:21.687Z,80.58
2022-08-08T05:40:27.874Z,81.16
2022-08-08T05:41:23.245Z,80.78
2022-08-08T05:42:25.944Z,80.97
2022-08-08T05:43:39.353Z,80.78
2022-08-08T05:44:21.612Z,80.53
2022-08-08T05:45:25.322Z,80.82
2022-08-08T05:46:21.600Z,81.20
2022-08-08T05:47:21.592Z,79.86
2022-08-08T05:48:28.342Z,79.57
2022-08-08T05:49:21.584Z,79.47
2022-08-08T05:50:21.580Z,79.57
2022-08-08T05:51:21.574Z,79.28
2022-08-08T05:52:32.342Z,79.19
2022-08-08T05:53:54.577Z,76.92
2022-08-08T05:54:27.986Z,77.88
2022-08-08T05:55:21.548Z,78.27
2022-08-08T05:56:21.549Z,76.92
2022-08-08T05:58:03.890Z,77.88
2022-08-08T05:58:30.147Z,78.45
2022-08-08T05:59:59.510Z,77.73
2022-08-08T06:00:24.924Z,77.25
2022-08-08T06:01:56.841Z,75.42
2022-08-08T06:02:21.517Z,75.52
2022-08-08T06:03:24.866Z,74.37
2022-08-08T06:04:23.832Z,75.71
2022-08-08T06:05:33.910Z,73.35
2022-08-08T06:06:23.481Z,72.64
2022-08-08T06:07:21.486Z,72.77
2022-08-08T06:08:33.187Z,72.96
2022-08-08T06:09:58.395Z,74.79
2022-08-08T06:10:24.435Z,73.44
2022-08-08T06:11:21.468Z,72.77
2022-08-08T06:12:30.486Z,73.35
2022-08-08T06:13:23.275Z,72.67
2022-08-08T06:14:21.455Z,70.01
2022-08-08T06:15:21.448Z,71.26
2022-08-08T06:16:25.114Z,70.98
2022-08-08T06:17:21.507Z,69.63
2022-08-08T06:18:22.417Z,69.73
2022-08-08T06:19:24.122Z,69.34
2022-08-08T06:20:21.423Z,68.41
2022-08-08T06:21:32.342Z,68.60
2022-08-08T06:22:36.779Z,67.55
2022-08-08T06:23:23.455Z,68.90
2022-08-08T06:24:26.949Z,67.26
2022-08-08T06:25:58.914Z,66.58
2022-08-08T06:26:44.155Z,67.07
2022-08-08T06:27:21.388Z,67.35
2022-08-08T06:28:29.473Z,67.35
2022-08-08T06:29:48.678Z,66.68
2022-08-08T06:30:28.854Z,66.30
2022-08-08T06:31:21.377Z,67.29
2022-08-08T06:32:21.363Z,66.91
2022-08-08T06:33:36.512Z,66.33
2022-08-08T06:34:27.148Z,65.94
2022-08-08T06:36:06.095Z,65.94
2022-08-08T06:36:21.346Z,65.94
2022-08-08T06:37:36.787Z,65.66
2022-08-08T06:38:21.336Z,64.40
2022-08-08T06:39:21.822Z,65.46
2022-08-08T06:40:21.330Z,64.59
2022-08-08T06:41:21.323Z,64.15
2022-08-08T06:42:21.315Z,64.34
2022-08-08T06:43:21.314Z,65.88
2022-08-08T06:44:25.134Z,64.63
2022-08-08T06:45:21.298Z,63.57
2022-08-08T06:46:23.834Z,63.67
2022-08-08T06:47:22.129Z,64.53
2022-08-08T06:48:21.670Z,64.82
2022-08-08T06:49:55.216Z,63.47
2022-08-08T06:50:32.105Z,64.34
2022-08-08T06:51:22.281Z,63.57
2022-08-08T06:52:21.271Z,64.37
2022-08-08T06:53:21.265Z,65.33
2022-08-08T06:54:21.265Z,66.46
2022-08-08T06:55:21.255Z,64.56
2022-08-08T06:56:23.228Z,64.08
2022-08-08T06:57:21.246Z,63.98
2022-08-08T06:58:21.292Z,64.28
2022-08-08T06:59:21.242Z,65.72
2022-08-08T07:00:30.412Z,63.50
2022-08-08T07:02:17.927Z,62.15
2022-08-08T07:02:28.978Z,62.25
2022-08-08T07:04:37.314Z,62.83
2022-08-08T07:04:38.731Z,61.77
2022-08-08T07:05:24.890Z,63.60
2022-08-08T07:06:21.208Z,61.96
2022-08-08T07:07:21.204Z,62.06
2022-08-08T07:08:21.209Z,61.99
2022-08-08T07:09:21.635Z,62.09
2022-08-08T07:10:21.192Z,60.74
2022-08-08T07:11:22.130Z,59.97
2022-08-08T07:12:21.180Z,60.55
2022-08-08T07:13:25.163Z,60.55
2022-08-08T07:14:21.178Z,60.35
2022-08-08T07:15:32.331Z,61.13
2022-08-08T07:16:21.167Z,60.74
2022-08-08T07:17:21.159Z,60.55
2022-08-08T07:18:36.064Z,60.83
2022-08-08T07:19:21.154Z,61.80
2022-08-08T07:20:21.151Z,61.22
2022-08-08T07:21:21.144Z,62.18
2022-08-08T07:22:21.133Z,61.54
2022-08-08T07:23:22.412Z,59.61
2022-08-08T07:24:22.936Z,60.28
2022-08-08T07:25:21.132Z,60.68
2022-08-08T07:26:21.632Z,60.77
2022-08-08T07:27:21.117Z,60.77
2022-08-08T07:28:21.119Z,59.42
2022-08-08T07:30:00.495Z,59.32
2022-08-08T07:30:25.884Z,58.75
2022-08-08T07:31:21.103Z,59.06
2022-08-08T07:32:22.182Z,57.81
2022-08-08T07:33:21.096Z,57.52
2022-08-08T07:34:31.384Z,57.42
2022-08-08T07:35:21.086Z,57.52
2022-08-08T07:36:21.097Z,57.42
2022-08-08T07:37:21.099Z,58.00
2022-08-08T07:38:25.610Z,58.97
2022-08-08T07:39:22.536Z,59.93
2022-08-08T07:40:30.082Z,59.55
2022-08-08T07:41:24.755Z,58.58
2022-08-08T07:42:21.060Z,57.81
2022-08-08T07:43:32.353Z,57.62
2022-08-08T07:44:40.815Z,58.29
2022-08-08T07:45:21.061Z,57.62
2022-08-08T07:46:29.112Z,57.14
2022-08-08T07:47:38.164Z,57.32
2022-08-08T07:48:21.036Z,57.23
2022-08-08T07:49:21.031Z,57.45
2022-08-08T07:50:23.325Z,57.54
2022-08-08T07:51:24.418Z,57.16
2022-08-08T07:52:26.688Z,58.22
2022-08-08T07:53:52.270Z,58.90
2022-08-08T07:54:27.012Z,58.90
2022-08-08T07:55:21.009Z,58.90
2022-08-08T07:56:36.303Z,58.61
2022-08-08T07:57:21.180Z,59.00
2022-08-08T07:58:21.001Z,58.61
2022-08-08T07:59:20.996Z,58.03
2022-08-08T08:00:21.028Z,58.90
2022-08-08T08:01:21.041Z,59.31
2022-08-08T08:02:35.952Z,58.54
2022-08-08T08:03:24.067Z,57.57
2022-08-08T08:04:20.977Z,58.22
2022-08-08T08:05:20.971Z,58.73
2022-08-08T08:06:20.972Z,59.22
2022-08-08T08:07:22.593Z,57.19
2022-08-08T08:08:20.981Z,58.35
2022-08-08T08:09:20.960Z,58.64
2022-08-08T08:10:30.798Z,58.73
2022-08-08T08:11:21.400Z,57.67
2022-08-08T08:12:35.728Z,58.83
2022-08-08T08:13:25.998Z,59.22
2022-08-08T08:14:20.942Z,58.73
2022-08-08T08:15:21.746Z,58.93
2022-08-08T08:16:20.933Z,57.29
2022-08-08T08:17:21.156Z,56.51
2022-08-08T08:18:31.916Z,56.61
2022-08-08T08:19:21.255Z,56.54
2022-08-08T08:20:21.009Z,57.29
2022-08-08T08:21:20.917Z,57.38
2022-08-08T08:22:31.190Z,58.83
2022-08-08T08:23:20.910Z,57.38
2022-08-08T08:24:20.908Z,56.63
2022-08-08T08:25:42.980Z,58.28
2022-08-08T08:26:27.352Z,58.67
2022-08-08T08:27:20.898Z,57.57
2022-08-08T08:28:23.973Z,57.77
2022-08-08T08:29:20.891Z,58.73
2022-08-08T08:30:20.889Z,58.83
2022-08-08T08:31:20.885Z,58.47
2022-08-08T08:32:31.886Z,58.28
2022-08-08T08:33:20.879Z,60.60
2022-08-08T08:34:21.357Z,59.83
2022-08-08T08:35:21.462Z,59.44
2022-08-08T08:36:21.966Z,58.86
2022-08-08T08:37:20.866Z,58.76
2022-08-08T08:38:20.935Z,58.86
2022-08-08T08:39:59.690Z,57.70
2022-08-08T08:41:24.968Z,57.54
2022-08-08T08:42:29.124Z,57.34
2022-08-08T08:43:26.979Z,57.92
2022-08-08T08:44:24.800Z,57.73
2022-08-08T08:45:26.428Z,57.18
2022-08-08T08:46:26.016Z,56.60
2022-08-08T08:47:24.789Z,56.11
2022-08-08T08:48:24.843Z,55.92
2022-08-08T08:49:25.687Z,56.57
2022-08-08T08:50:33.822Z,56.57
2022-08-08T08:51:24.771Z,57.28
2022-08-08T08:52:24.764Z,57.08
2022-08-08T08:53:27.290Z,56.67
2022-08-08T08:54:25.453Z,56.18
2022-08-08T08:55:24.768Z,56.37
2022-08-08T08:56:24.763Z,55.63
2022-08-08T08:57:24.760Z,56.30
2022-08-08T08:58:24.758Z,57.08
2022-08-08T08:59:58.915Z,55.73
2022-08-08T09:00:24.874Z,55.43
2022-08-08T09:01:24.830Z,55.92
2022-08-08T09:02:24.745Z,56.60
2022-08-08T09:03:31.518Z,55.53
2022-08-08T09:04:31.337Z,54.79
2022-08-08T09:05:49.086Z,54.98
2022-08-08T09:06:26.418Z,56.04
2022-08-08T09:07:39.531Z,54.98
2022-08-08T09:08:24.728Z,54.39
2022-08-08T09:09:36.165Z,53.91
2022-08-08T09:10:28.210Z,53.72
2022-08-08T09:11:24.720Z,54.39
2022-08-08T09:12:24.723Z,54.81
2022-08-08T09:13:28.042Z,54.81
2022-08-08T09:14:25.906Z,54.81
2022-08-08T09:15:41.341Z,53.65
2022-08-08T09:16:28.796Z,53.85
2022-08-08T09:17:40.988Z,53.45
2022-08-08T09:18:24.701Z,54.81
2022-08-08T09:21:58.838Z,53.45
2022-08-08T09:21:58.840Z,54.81
2022-08-08T09:22:04.778Z,54.23
2022-08-08T09:22:26.815Z,53.87
2022-08-08T09:23:25.709Z,54.45
2022-08-08T09:24:24.689Z,53.19
2022-08-08T09:25:24.688Z,54.06
2022-08-08T09:26:24.678Z,54.06
2022-08-08T09:27:56.410Z,53.67
2022-08-08T09:28:35.661Z,52.42
2022-08-08T09:29:24.940Z,51.74
2022-08-08T09:30:24.670Z,51.45
2022-08-08T09:31:24.675Z,51.35
2022-08-08T09:32:31.049Z,51.16
2022-08-08T09:34:14.574Z,52.03
2022-08-08T09:34:32.888Z,52.93
2022-08-08T09:35:32.243Z,52.64
2022-08-08T09:36:24.656Z,53.41
2022-08-08T09:37:34.161Z,53.02
2022-08-08T09:38:24.650Z,51.96
2022-08-08T09:39:24.692Z,51.67
2022-08-08T09:40:40.705Z,50.79
2022-08-08T09:41:24.647Z,51.76
2022-08-08T09:42:25.971Z,52.28
2022-08-08T09:43:40.588Z,51.89
2022-08-08T09:44:24.635Z,50.24
2022-08-08T09:46:00.785Z,50.72
2022-08-08T09:46:30.683Z,49.85
2022-08-08T09:48:05.066Z,48.88
2022-08-08T09:48:32.409Z,48.88
2022-08-08T09:49:42.512Z,48.13
2022-08-08T09:50:24.628Z,47.62
2022-08-08T09:51:25.810Z,47.91
2022-08-08T09:52:56.043Z,50.74
2022-08-08T09:53:54.369Z,50.65
2022-08-08T09:54:36.976Z,49.19
2022-08-08T09:56:02.848Z,49.71
2022-08-08T09:56:27.672Z,48.73
2022-08-08T09:57:25.171Z,48.54
2022-08-08T09:58:28.002Z,48.05
2022-08-08T10:00:50.213Z,48.05
2022-08-08T10:01:59.675Z,48.42
2022-08-08T10:02:24.656Z,47.86
2022-08-08T10:03:24.604Z,47.08
2022-08-08T10:04:42.239Z,45.99
2022-08-08T10:05:25.558Z,46.79
2022-08-08T10:06:29.321Z,48.05
2022-08-08T10:07:25.876Z,46.98
2022-08-08T10:08:24.586Z,47.18
2022-08-08T10:09:24.588Z,47.45
2022-08-08T10:10:30.368Z,47.86
2022-08-08T10:12:27.880Z,48.15
2022-08-08T10:12:31.358Z,48.93
2022-08-08T10:13:29.902Z,48.93
2022-08-08T10:14:28.113Z,47.96
2022-08-08T10:15:25.154Z,49.12
2022-08-08T10:16:24.574Z,48.05
2022-08-08T10:17:57.179Z,48.15
2022-08-08T10:18:25.720Z,50.09
2022-08-08T10:19:24.572Z,49.02
2022-08-08T10:20:27.895Z,48.57
2022-08-08T10:21:28.484Z,47.98
2022-08-08T10:22:24.561Z,47.59
2022-08-08T10:23:41.981Z,48.75
2022-08-08T10:24:29.204Z,47.01
2022-08-08T10:25:24.563Z,48.85
2022-08-08T10:26:29.878Z,48.95
2022-08-08T10:27:24.556Z,47.59
2022-08-08T10:28:25.579Z,46.72
2022-08-08T10:29:24.915Z,45.94
2022-08-08T10:31:00.582Z,46.15
2022-08-08T10:31:46.851Z,47.91
2022-08-08T10:32:24.546Z,47.71
2022-08-08T10:33:24.550Z,46.77
2022-08-08T10:34:24.544Z,47.61
2022-08-08T10:36:09.375Z,46.57
2022-08-08T10:36:24.546Z,46.18
2022-08-08T10:37:24.545Z,46.25
2022-08-08T10:38:24.541Z,46.45
2022-08-08T10:39:31.615Z,46.18
2022-08-08T10:40:24.594Z,45.97
2022-08-08T10:41:24.540Z,45.60
2022-08-08T10:42:27.190Z,45.57
2022-08-08T10:43:24.536Z,45.87
2022-08-08T10:44:24.529Z,49.19
2022-08-08T10:45:24.533Z,48.80
2022-08-08T10:46:29.328Z,46.77
2022-08-08T10:47:24.527Z,46.67
2022-08-08T10:48:24.528Z,47.54
2022-08-08T10:50:00.874Z,48.03
2022-08-08T10:50:24.528Z,46.77
2022-08-08T10:51:26.255Z,47.25
2022-08-08T10:52:29.990Z,46.96
2022-08-08T10:53:39.199Z,46.47
2022-08-08T10:54:24.713Z,46.88
2022-08-08T10:55:39.470Z,46.37
2022-08-08T10:56:27.132Z,46.59
2022-08-08T10:57:41.411Z,47.93
2022-08-08T10:58:24.519Z,46.11
2022-08-08T10:59:24.514Z,44.45
2022-08-08T11:00:25.742Z,44.45
2022-08-08T11:01:24.556Z,44.55
2022-08-08T11:02:25.330Z,45.62
2022-08-08T11:03:36.450Z,45.06
2022-08-08T11:04:29.850Z,44.86
2022-08-08T11:05:24.514Z,45.64
2022-08-08T11:06:24.520Z,45.35
2022-08-08T11:08:30.258Z,48.27
2022-08-08T11:08:30.544Z,47.42
2022-08-08T11:09:24.508Z,45.15
2022-08-08T11:10:28.806Z,43.77
2022-08-08T11:11:31.759Z,44.65
2022-08-08T11:12:24.537Z,48.46
2022-08-08T11:13:28.533Z,47.00
2022-08-08T11:14:25.808Z,46.42
2022-08-08T11:15:24.503Z,45.25
2022-08-08T11:16:32.631Z,44.86
2022-08-08T11:17:58.642Z,45.37
2022-08-08T11:18:24.496Z,44.01
2022-08-08T11:19:24.499Z,43.81
2022-08-08T11:20:27.433Z,47.03
2022-08-08T11:21:24.500Z,44.59
2022-08-08T11:22:24.496Z,44.01
2022-08-08T11:23:24.512Z,44.01
2022-08-08T11:24:24.495Z,43.81
2022-08-08T11:25:52.348Z,43.13
2022-08-08T11:26:28.029Z,43.81
2022-08-08T11:27:24.497Z,43.99
2022-08-08T11:28:25.018Z,43.81
2022-08-08T11:29:41.449Z,44.01
2022-08-08T11:30:27.450Z,43.79
2022-08-08T11:31:24.492Z,44.28
2022-08-08T11:32:29.477Z,45.57
2022-08-08T11:33:51.107Z,45.76
2022-08-08T11:34:34.314Z,45.47
2022-08-08T11:35:38.370Z,44.71
2022-08-08T11:36:27.980Z,44.52
2022-08-08T11:38:34.555Z,45.10
2022-08-08T11:38:37.174Z,43.84
2022-08-08T11:39:24.504Z,43.95
2022-08-08T11:40:26.467Z,44.15
2022-08-08T11:41:24.839Z,44.34
2022-08-08T11:42:27.145Z,43.27
2022-08-08T11:43:24.632Z,43.85
2022-08-08T11:44:28.787Z,42.59
2022-08-08T11:45:24.493Z,42.00
2022-08-08T11:46:24.606Z,41.81
2022-08-08T11:47:24.491Z,42.59
2022-08-08T11:48:24.493Z,44.66
2022-08-08T11:49:24.493Z,43.29
2022-08-08T11:50:24.497Z,44.46
2022-08-08T11:51:29.490Z,45.56
2022-08-08T11:52:27.344Z,42.80
2022-08-08T11:53:24.499Z,44.09
2022-08-08T11:54:31.122Z,44.38
2022-08-08T11:55:24.504Z,43.90
2022-08-08T11:56:24.511Z,44.19
2022-08-08T11:57:27.505Z,42.83
2022-08-08T11:58:24.511Z,42.05
2022-08-08T12:00:01.037Z,43.99
2022-08-08T12:00:24.515Z,42.63
2022-08-08T12:01:24.521Z,42.24
2022-08-08T12:02:33.504Z,42.44
2022-08-08T12:03:24.611Z,41.46
2022-08-08T12:04:24.526Z,40.99
2022-08-08T12:05:24.769Z,41.28
2022-08-08T12:06:24.535Z,41.48
2022-08-08T12:07:24.537Z,42.16
2022-08-08T12:08:24.544Z,41.97
2022-08-08T12:09:24.543Z,41.67
2022-08-08T12:10:24.540Z,43.04
2022-08-08T12:11:28.586Z,42.16
2022-08-08T12:12:28.806Z,41.87
2022-08-08T12:13:38.057Z,41.09
2022-08-08T12:14:29.270Z,41.70
2022-08-08T12:15:24.569Z,41.02
2022-08-08T12:16:31.723Z,40.64
2022-08-08T12:17:24.572Z,42.60
2022-08-08T12:18:25.231Z,42.69
2022-08-08T12:19:37.836Z,41.82
2022-08-08T12:20:24.585Z,42.22
2022-08-08T12:21:25.879Z,40.08
2022-08-08T12:22:24.592Z,40.47
2022-08-08T12:23:30.661Z,40.76
2022-08-08T12:24:27.986Z,40.37
2022-08-08T12:25:29.704Z,39.98
2022-08-08T12:26:28.386Z,40.64
2022-08-08T12:27:26.917Z,39.98
2022-08-08T12:28:24.620Z,40.76
2022-08-08T12:29:36.170Z,39.59
2022-08-08T12:30:24.899Z,39.20
2022-08-08T12:31:24.631Z,39.98
2022-08-08T12:32:24.636Z,39.49
2022-08-08T12:33:24.640Z,39.16
2022-08-08T12:34:24.643Z,40.14
2022-08-08T12:35:24.644Z,41.11
2022-08-08T12:36:24.673Z,41.89
2022-08-08T12:37:25.859Z,40.82
2022-08-08T12:38:30.567Z,41.50
2022-08-08T12:39:24.656Z,39.76
2022-08-08T12:40:24.871Z,41.23
2022-08-08T12:41:34.010Z,43.57
2022-08-08T12:42:27.333Z,40.37
2022-08-08T12:43:24.673Z,40.37
2022-08-08T12:44:32.688Z,41.35
2022-08-08T12:45:59.745Z,40.45
2022-08-08T12:46:25.193Z,41.41
2022-08-08T12:47:43.388Z,41.02
2022-08-08T12:48:36.923Z,39.55
2022-08-08T12:49:40.121Z,41.31
2022-08-08T12:50:25.856Z,40.43
2022-08-08T12:51:24.714Z,41.02
2022-08-08T12:52:28.538Z,40.92
2022-08-08T12:53:28.285Z,41.41